sensor_id;sensor_type;location;lat;lon;timestamp;P1;durP1;ratioP1;P2;durP2;ratioP2
14923;SDS011;7554;43.600;1.480;2023-01-13T00:00:58;29.43;;;13.67;;
14923;SDS011;7554;43.600;1.480;2023-01-13T00:03:32;22.10;;;12.43;;
14923;SDS011;7554;43.600;1.480;2023-01-13T00:05:59;22.83;;;12.10;;
14923;SDS011;7554;43.600;1.480;2023-01-13T00:08:27;25.80;;;11.73;;
14923;SDS011;7554;43.600;1.480;2023-01-13T00:10:54;23.23;;;11.07;;
14923;SDS011;7554;43.600;1.480;2023-01-13T00:13:22;28.40;;;12.20;;
14923;SDS011;7554;43.600;1.480;2023-01-13T00:15:55;24.40;;;12.83;;
14923;SDS011;7554;43.600;1.480;2023-01-13T00:18:22;22.40;;;11.73;;
14923;SDS011;7554;43.600;1.480;2023-01-13T00:20:58;21.60;;;10.87;;
14923;SDS011;7554;43.600;1.480;2023-01-13T00:23:26;18.27;;;9.57;;
14923;SDS011;7554;43.600;1.480;2023-01-13T00:25:54;25.40;;;10.10;;
14923;SDS011;7554;43.600;1.480;2023-01-13T00:28:22;20.40;;;11.10;;
14923;SDS011;7554;43.600;1.480;2023-01-13T00:30:50;22.07;;;12.47;;
14923;SDS011;7554;43.600;1.480;2023-01-13T00:33:17;26.50;;;14.33;;
14923;SDS011;7554;43.600;1.480;2023-01-13T00:35:53;20.63;;;12.23;;
14923;SDS011;7554;43.600;1.480;2023-01-13T00:38:23;23.37;;;14.23;;
14923;SDS011;7554;43.600;1.480;2023-01-13T00:40:54;29.77;;;16.03;;
14923;SDS011;7554;43.600;1.480;2023-01-13T00:43:22;23.10;;;13.80;;
14923;SDS011;7554;43.600;1.480;2023-01-13T00:45:49;21.80;;;13.17;;
14923;SDS011;7554;43.600;1.480;2023-01-13T00:48:17;22.53;;;11.83;;
14923;SDS011;7554;43.600;1.480;2023-01-13T00:50:44;19.63;;;9.80;;
14923;SDS011;7554;43.600;1.480;2023-01-13T00:53:12;20.40;;;9.70;;
14923;SDS011;7554;43.600;1.480;2023-01-13T00:55:42;22.03;;;10.60;;
14923;SDS011;7554;43.600;1.480;2023-01-13T00:58:10;21.30;;;9.57;;
14923;SDS011;7554;43.600;1.480;2023-01-13T01:00:37;22.73;;;9.57;;
14923;SDS011;7554;43.600;1.480;2023-01-13T01:03:04;17.53;;;8.73;;
14923;SDS011;7554;43.600;1.480;2023-01-13T01:05:36;19.73;;;8.80;;
14923;SDS011;7554;43.600;1.480;2023-01-13T01:08:04;17.10;;;9.07;;
14923;SDS011;7554;43.600;1.480;2023-01-13T01:10:31;18.20;;;9.17;;
14923;SDS011;7554;43.600;1.480;2023-01-13T01:13:00;19.53;;;9.23;;
14923;SDS011;7554;43.600;1.480;2023-01-13T01:15:28;23.13;;;10.50;;
14923;SDS011;7554;43.600;1.480;2023-01-13T01:17:55;23.30;;;9.30;;
14923;SDS011;7554;43.600;1.480;2023-01-13T01:20:22;22.63;;;9.70;;
14923;SDS011;7554;43.600;1.480;2023-01-13T01:22:50;18.60;;;11.13;;
14923;SDS011;7554;43.600;1.480;2023-01-13T01:25:17;19.50;;;10.60;;
14923;SDS011;7554;43.600;1.480;2023-01-13T01:27:44;26.97;;;11.73;;
14923;SDS011;7554;43.600;1.480;2023-01-13T01:30:14;18.77;;;10.37;;
14923;SDS011;7554;43.600;1.480;2023-01-13T01:32:41;20.27;;;11.23;;
14923;SDS011;7554;43.600;1.480;2023-01-13T01:35:08;20.00;;;11.63;;
14923;SDS011;7554;43.600;1.480;2023-01-13T01:37:36;18.57;;;10.73;;
14923;SDS011;7554;43.600;1.480;2023-01-13T01:40:03;22.87;;;12.40;;
14923;SDS011;7554;43.600;1.480;2023-01-13T01:42:31;24.23;;;12.60;;
14923;SDS011;7554;43.600;1.480;2023-01-13T01:45:19;24.53;;;11.27;;
14923;SDS011;7554;43.600;1.480;2023-01-13T01:47:48;21.73;;;11.43;;
14923;SDS011;7554;43.600;1.480;2023-01-13T01:50:20;19.90;;;11.90;;
14923;SDS011;7554;43.600;1.480;2023-01-13T01:52:49;20.03;;;11.67;;
14923;SDS011;7554;43.600;1.480;2023-01-13T01:55:20;18.30;;;10.27;;
14923;SDS011;7554;43.600;1.480;2023-01-13T01:57:52;17.90;;;11.20;;
14923;SDS011;7554;43.600;1.480;2023-01-13T02:00:24;21.07;;;9.97;;
14923;SDS011;7554;43.600;1.480;2023-01-13T02:02:54;16.73;;;9.70;;
14923;SDS011;7554;43.600;1.480;2023-01-13T02:05:22;18.77;;;9.00;;
14923;SDS011;7554;43.600;1.480;2023-01-13T02:07:50;21.37;;;9.40;;
14923;SDS011;7554;43.600;1.480;2023-01-13T02:10:20;17.90;;;9.27;;
14923;SDS011;7554;43.600;1.480;2023-01-13T02:12:50;17.27;;;10.13;;
14923;SDS011;7554;43.600;1.480;2023-01-13T02:15:20;17.97;;;7.47;;
14923;SDS011;7554;43.600;1.480;2023-01-13T02:18:04;13.77;;;6.10;;
14923;SDS011;7554;43.600;1.480;2023-01-13T02:20:47;14.83;;;5.57;;
14923;SDS011;7554;43.600;1.480;2023-01-13T02:29:50;14.13;;;4.90;;
14923;SDS011;7554;43.600;1.480;2023-01-13T02:32:49;8.93;;;4.13;;
14923;SDS011;7554;43.600;1.480;2023-01-13T02:35:26;10.40;;;4.10;;
14923;SDS011;7554;43.600;1.480;2023-01-13T02:37:58;11.50;;;4.10;;
14923;SDS011;7554;43.600;1.480;2023-01-13T02:40:29;12.07;;;3.93;;
14923;SDS011;7554;43.600;1.480;2023-01-13T02:43:03;8.40;;;4.13;;
14923;SDS011;7554;43.600;1.480;2023-01-13T02:45:54;9.60;;;3.90;;
14923;SDS011;7554;43.600;1.480;2023-01-13T02:48:26;9.33;;;3.73;;
14923;SDS011;7554;43.600;1.480;2023-01-13T02:50:57;9.70;;;3.90;;
14923;SDS011;7554;43.600;1.480;2023-01-13T02:53:29;10.03;;;3.63;;
14923;SDS011;7554;43.600;1.480;2023-01-13T02:56:02;10.03;;;3.83;;
14923;SDS011;7554;43.600;1.480;2023-01-13T02:58:31;7.03;;;3.73;;
14923;SDS011;7554;43.600;1.480;2023-01-13T03:01:03;12.73;;;3.90;;
14923;SDS011;7554;43.600;1.480;2023-01-13T03:03:30;11.50;;;4.27;;
14923;SDS011;7554;43.600;1.480;2023-01-13T03:06:00;11.40;;;3.70;;
14923;SDS011;7554;43.600;1.480;2023-01-13T03:08:40;10.53;;;4.00;;
14923;SDS011;7554;43.600;1.480;2023-01-13T03:11:14;9.40;;;4.07;;
14923;SDS011;7554;43.600;1.480;2023-01-13T03:13:52;9.00;;;3.60;;
14923;SDS011;7554;43.600;1.480;2023-01-13T03:16:42;10.53;;;4.00;;
14923;SDS011;7554;43.600;1.480;2023-01-13T03:19:27;8.73;;;3.80;;
14923;SDS011;7554;43.600;1.480;2023-01-13T03:22:06;12.30;;;3.80;;
14923;SDS011;7554;43.600;1.480;2023-01-13T03:24:43;10.73;;;3.73;;
14923;SDS011;7554;43.600;1.480;2023-01-13T03:27:17;10.27;;;4.03;;
14923;SDS011;7554;43.600;1.480;2023-01-13T03:29:49;13.53;;;3.53;;
14923;SDS011;7554;43.600;1.480;2023-01-13T03:32:25;9.97;;;3.40;;
14923;SDS011;7554;43.600;1.480;2023-01-13T03:34:57;12.47;;;3.87;;
14923;SDS011;7554;43.600;1.480;2023-01-13T03:37:35;11.53;;;3.40;;
14923;SDS011;7554;43.600;1.480;2023-01-13T03:40:06;10.67;;;3.53;;
14923;SDS011;7554;43.600;1.480;2023-01-13T03:42:38;8.63;;;4.27;;
14923;SDS011;7554;43.600;1.480;2023-01-13T03:45:30;9.93;;;3.77;;
14923;SDS011;7554;43.600;1.480;2023-01-13T03:48:00;7.70;;;3.53;;
14923;SDS011;7554;43.600;1.480;2023-01-13T03:50:32;9.43;;;3.80;;
14923;SDS011;7554;43.600;1.480;2023-01-13T03:53:06;9.40;;;3.60;;
14923;SDS011;7554;43.600;1.480;2023-01-13T03:55:37;9.00;;;3.67;;
14923;SDS011;7554;43.600;1.480;2023-01-13T03:58:08;8.43;;;3.83;;
14923;SDS011;7554;43.600;1.480;2023-01-13T04:00:41;8.63;;;3.60;;
14923;SDS011;7554;43.600;1.480;2023-01-13T04:03:17;11.20;;;4.17;;
14923;SDS011;7554;43.600;1.480;2023-01-13T04:05:50;13.07;;;4.30;;
14923;SDS011;7554;43.600;1.480;2023-01-13T04:08:32;13.23;;;3.70;;
14923;SDS011;7554;43.600;1.480;2023-01-13T04:11:02;12.00;;;4.33;;
14923;SDS011;7554;43.600;1.480;2023-01-13T04:13:34;7.70;;;3.57;;
14923;SDS011;7554;43.600;1.480;2023-01-13T04:16:05;10.73;;;3.90;;
14923;SDS011;7554;43.600;1.480;2023-01-13T04:18:35;9.13;;;3.80;;
14923;SDS011;7554;43.600;1.480;2023-01-13T04:21:04;9.77;;;3.97;;
14923;SDS011;7554;43.600;1.480;2023-01-13T04:23:33;10.73;;;3.80;;
14923;SDS011;7554;43.600;1.480;2023-01-13T04:26:00;10.37;;;3.93;;
14923;SDS011;7554;43.600;1.480;2023-01-13T04:28:28;8.40;;;3.93;;
14923;SDS011;7554;43.600;1.480;2023-01-13T04:30:55;10.97;;;3.87;;
14923;SDS011;7554;43.600;1.480;2023-01-13T04:33:23;11.03;;;3.63;;
14923;SDS011;7554;43.600;1.480;2023-01-13T04:35:52;10.70;;;3.33;;
14923;SDS011;7554;43.600;1.480;2023-01-13T04:38:21;10.90;;;3.60;;
14923;SDS011;7554;43.600;1.480;2023-01-13T04:40:48;8.77;;;3.97;;
14923;SDS011;7554;43.600;1.480;2023-01-13T04:43:16;7.87;;;3.37;;
14923;SDS011;7554;43.600;1.480;2023-01-13T04:45:43;9.00;;;3.97;;
14923;SDS011;7554;43.600;1.480;2023-01-13T04:48:11;12.53;;;3.93;;
14923;SDS011;7554;43.600;1.480;2023-01-13T04:50:39;9.73;;;3.40;;
14923;SDS011;7554;43.600;1.480;2023-01-13T04:53:08;8.27;;;3.40;;
14923;SDS011;7554;43.600;1.480;2023-01-13T04:55:35;9.53;;;3.40;;
14923;SDS011;7554;43.600;1.480;2023-01-13T04:58:03;9.43;;;3.80;;
14923;SDS011;7554;43.600;1.480;2023-01-13T05:00:31;10.07;;;3.60;;
14923;SDS011;7554;43.600;1.480;2023-01-13T05:02:59;10.27;;;4.57;;
14923;SDS011;7554;43.600;1.480;2023-01-13T05:05:27;9.23;;;3.57;;
14923;SDS011;7554;43.600;1.480;2023-01-13T05:07:55;10.30;;;4.40;;
14923;SDS011;7554;43.600;1.480;2023-01-13T05:10:24;10.50;;;3.63;;
14923;SDS011;7554;43.600;1.480;2023-01-13T05:12:52;8.17;;;4.00;;
14923;SDS011;7554;43.600;1.480;2023-01-13T05:15:38;7.63;;;4.13;;
14923;SDS011;7554;43.600;1.480;2023-01-13T05:18:23;7.97;;;3.90;;
14923;SDS011;7554;43.600;1.480;2023-01-13T05:20:50;12.07;;;4.63;;
14923;SDS011;7554;43.600;1.480;2023-01-13T05:23:18;8.60;;;3.60;;
14923;SDS011;7554;43.600;1.480;2023-01-13T05:26:04;11.87;;;4.20;;
14923;SDS011;7554;43.600;1.480;2023-01-13T05:28:32;9.20;;;4.90;;
14923;SDS011;7554;43.600;1.480;2023-01-13T05:31:00;14.53;;;4.27;;
14923;SDS011;7554;43.600;1.480;2023-01-13T05:33:27;12.63;;;4.47;;
14923;SDS011;7554;43.600;1.480;2023-01-13T05:35:55;9.40;;;4.50;;
14923;SDS011;7554;43.600;1.480;2023-01-13T05:38:27;9.53;;;4.60;;
14923;SDS011;7554;43.600;1.480;2023-01-13T05:40:55;13.77;;;4.83;;
14923;SDS011;7554;43.600;1.480;2023-01-13T05:43:43;8.50;;;4.00;;
14923;SDS011;7554;43.600;1.480;2023-01-13T05:46:11;12.83;;;4.93;;
14923;SDS011;7554;43.600;1.480;2023-01-13T05:48:39;12.83;;;4.50;;
14923;SDS011;7554;43.600;1.480;2023-01-13T05:51:08;7.40;;;3.77;;
14923;SDS011;7554;43.600;1.480;2023-01-13T05:53:37;8.53;;;4.17;;
14923;SDS011;7554;43.600;1.480;2023-01-13T05:56:06;9.67;;;3.90;;
14923;SDS011;7554;43.600;1.480;2023-01-13T05:58:34;12.80;;;4.97;;
14923;SDS011;7554;43.600;1.480;2023-01-13T06:01:04;8.73;;;4.07;;
14923;SDS011;7554;43.600;1.480;2023-01-13T06:03:32;10.13;;;4.63;;
14923;SDS011;7554;43.600;1.480;2023-01-13T06:06:00;11.27;;;4.83;;
14923;SDS011;7554;43.600;1.480;2023-01-13T06:08:28;10.00;;;4.73;;
14923;SDS011;7554;43.600;1.480;2023-01-13T06:10:56;7.87;;;4.03;;
14923;SDS011;7554;43.600;1.480;2023-01-13T06:13:23;12.60;;;3.93;;
14923;SDS011;7554;43.600;1.480;2023-01-13T06:15:50;9.03;;;4.20;;
14923;SDS011;7554;43.600;1.480;2023-01-13T06:18:22;11.67;;;4.43;;
14923;SDS011;7554;43.600;1.480;2023-01-13T06:20:49;8.43;;;4.17;;
14923;SDS011;7554;43.600;1.480;2023-01-13T06:23:17;7.80;;;4.33;;
14923;SDS011;7554;43.600;1.480;2023-01-13T06:25:45;8.20;;;4.50;;
14923;SDS011;7554;43.600;1.480;2023-01-13T06:28:16;14.37;;;5.00;;
14923;SDS011;7554;43.600;1.480;2023-01-13T06:30:44;8.17;;;4.27;;
14923;SDS011;7554;43.600;1.480;2023-01-13T06:33:15;6.40;;;3.93;;
14923;SDS011;7554;43.600;1.480;2023-01-13T06:35:47;7.07;;;4.10;;
14923;SDS011;7554;43.600;1.480;2023-01-13T06:38:18;9.87;;;4.90;;
14923;SDS011;7554;43.600;1.480;2023-01-13T06:40:48;7.97;;;3.70;;
14923;SDS011;7554;43.600;1.480;2023-01-13T06:43:15;9.33;;;4.07;;
14923;SDS011;7554;43.600;1.480;2023-01-13T06:45:43;7.93;;;4.30;;
14923;SDS011;7554;43.600;1.480;2023-01-13T06:48:13;9.40;;;3.97;;
14923;SDS011;7554;43.600;1.480;2023-01-13T06:50:41;10.53;;;4.60;;
14923;SDS011;7554;43.600;1.480;2023-01-13T06:53:10;10.67;;;4.63;;
14923;SDS011;7554;43.600;1.480;2023-01-13T06:55:38;9.00;;;4.30;;
14923;SDS011;7554;43.600;1.480;2023-01-13T06:58:05;11.37;;;3.97;;
14923;SDS011;7554;43.600;1.480;2023-01-13T07:00:33;7.63;;;4.50;;
14923;SDS011;7554;43.600;1.480;2023-01-13T07:03:05;11.03;;;4.67;;
14923;SDS011;7554;43.600;1.480;2023-01-13T07:05:33;8.57;;;4.17;;
14923;SDS011;7554;43.600;1.480;2023-01-13T07:08:01;10.70;;;4.23;;
14923;SDS011;7554;43.600;1.480;2023-01-13T07:10:30;11.03;;;4.53;;
14923;SDS011;7554;43.600;1.480;2023-01-13T07:12:59;9.73;;;4.43;;
14923;SDS011;7554;43.600;1.480;2023-01-13T07:15:54;13.20;;;4.87;;
14923;SDS011;7554;43.600;1.480;2023-01-13T07:18:23;12.83;;;3.43;;
14923;SDS011;7554;43.600;1.480;2023-01-13T07:20:52;9.10;;;3.40;;
14923;SDS011;7554;43.600;1.480;2023-01-13T07:23:21;7.53;;;3.57;;
14923;SDS011;7554;43.600;1.480;2023-01-13T07:25:49;8.10;;;3.40;;
14923;SDS011;7554;43.600;1.480;2023-01-13T07:28:17;9.63;;;3.67;;
14923;SDS011;7554;43.600;1.480;2023-01-13T07:30:44;9.73;;;3.33;;
14923;SDS011;7554;43.600;1.480;2023-01-13T07:33:12;12.23;;;3.13;;
14923;SDS011;7554;43.600;1.480;2023-01-13T07:35:39;15.10;;;3.40;;
14923;SDS011;7554;43.600;1.480;2023-01-13T07:38:06;6.67;;;2.73;;
14923;SDS011;7554;43.600;1.480;2023-01-13T07:40:34;9.30;;;3.10;;
14923;SDS011;7554;43.600;1.480;2023-01-13T07:43:03;6.00;;;2.60;;
14923;SDS011;7554;43.600;1.480;2023-01-13T07:45:48;7.67;;;2.70;;
14923;SDS011;7554;43.600;1.480;2023-01-13T07:48:20;8.47;;;2.37;;
14923;SDS011;7554;43.600;1.480;2023-01-13T07:50:47;7.70;;;2.57;;
14923;SDS011;7554;43.600;1.480;2023-01-13T07:53:15;10.07;;;2.03;;
14923;SDS011;7554;43.600;1.480;2023-01-13T07:55:43;6.07;;;2.60;;
14923;SDS011;7554;43.600;1.480;2023-01-13T07:58:12;7.73;;;2.57;;
14923;SDS011;7554;43.600;1.480;2023-01-13T08:00:39;6.23;;;2.23;;
14923;SDS011;7554;43.600;1.480;2023-01-13T08:03:07;4.07;;;1.87;;
14923;SDS011;7554;43.600;1.480;2023-01-13T08:05:34;3.47;;;1.60;;
14923;SDS011;7554;43.600;1.480;2023-01-13T08:13:58;4.40;;;1.93;;
14923;SDS011;7554;43.600;1.480;2023-01-13T08:16:26;5.57;;;1.80;;
14923;SDS011;7554;43.600;1.480;2023-01-13T08:18:57;4.70;;;1.60;;
14923;SDS011;7554;43.600;1.480;2023-01-13T08:21:24;4.03;;;1.30;;
14923;SDS011;7554;43.600;1.480;2023-01-13T08:23:52;4.27;;;1.80;;
14923;SDS011;7554;43.600;1.480;2023-01-13T08:26:19;4.70;;;1.20;;
14923;SDS011;7554;43.600;1.480;2023-01-13T08:28:47;3.13;;;1.50;;
14923;SDS011;7554;43.600;1.480;2023-01-13T08:31:16;6.30;;;1.53;;
14923;SDS011;7554;43.600;1.480;2023-01-13T08:33:44;5.13;;;1.53;;
14923;SDS011;7554;43.600;1.480;2023-01-13T08:36:12;5.03;;;1.50;;
14923;SDS011;7554;43.600;1.480;2023-01-13T08:38:39;6.47;;;1.70;;
14923;SDS011;7554;43.600;1.480;2023-01-13T08:41:07;4.83;;;1.50;;
14923;SDS011;7554;43.600;1.480;2023-01-13T08:43:36;4.13;;;1.47;;
14923;SDS011;7554;43.600;1.480;2023-01-13T08:46:03;5.10;;;1.60;;
14923;SDS011;7554;43.600;1.480;2023-01-13T08:48:33;4.97;;;1.57;;
14923;SDS011;7554;43.600;1.480;2023-01-13T08:51:01;6.10;;;1.50;;
14923;SDS011;7554;43.600;1.480;2023-01-13T08:53:29;5.47;;;1.50;;
14923;SDS011;7554;43.600;1.480;2023-01-13T08:55:56;4.73;;;1.63;;
14923;SDS011;7554;43.600;1.480;2023-01-13T08:58:24;6.03;;;1.57;;
14923;SDS011;7554;43.600;1.480;2023-01-13T09:00:51;3.20;;;1.57;;
14923;SDS011;7554;43.600;1.480;2023-01-13T09:03:19;3.30;;;1.37;;
14923;SDS011;7554;43.600;1.480;2023-01-13T09:05:48;3.33;;;1.43;;
14923;SDS011;7554;43.600;1.480;2023-01-13T09:08:15;3.40;;;1.53;;
14923;SDS011;7554;43.600;1.480;2023-01-13T09:10:42;4.70;;;1.53;;
14923;SDS011;7554;43.600;1.480;2023-01-13T09:13:11;2.93;;;1.30;;
14923;SDS011;7554;43.600;1.480;2023-01-13T09:15:38;4.80;;;1.40;;
14923;SDS011;7554;43.600;1.480;2023-01-13T09:18:06;5.53;;;1.87;;
14923;SDS011;7554;43.600;1.480;2023-01-13T09:20:34;7.30;;;1.67;;
14923;SDS011;7554;43.600;1.480;2023-01-13T09:23:03;4.63;;;1.63;;
14923;SDS011;7554;43.600;1.480;2023-01-13T09:25:31;6.60;;;2.30;;
14923;SDS011;7554;43.600;1.480;2023-01-13T09:28:01;7.57;;;2.10;;
14923;SDS011;7554;43.600;1.480;2023-01-13T09:30:30;4.13;;;2.07;;
14923;SDS011;7554;43.600;1.480;2023-01-13T09:32:57;4.87;;;1.87;;
14923;SDS011;7554;43.600;1.480;2023-01-13T09:35:39;4.50;;;1.80;;
14923;SDS011;7554;43.600;1.480;2023-01-13T09:38:07;6.03;;;1.90;;
14923;SDS011;7554;43.600;1.480;2023-01-13T09:40:35;3.00;;;1.97;;
14923;SDS011;7554;43.600;1.480;2023-01-13T09:43:10;2.93;;;1.80;;
14923;SDS011;7554;43.600;1.480;2023-01-13T09:46:03;8.50;;;1.90;;
14923;SDS011;7554;43.600;1.480;2023-01-13T09:48:57;5.37;;;1.93;;
14923;SDS011;7554;43.600;1.480;2023-01-13T09:51:29;5.27;;;1.73;;
14923;SDS011;7554;43.600;1.480;2023-01-13T09:54:02;4.50;;;2.10;;
14923;SDS011;7554;43.600;1.480;2023-01-13T09:56:36;4.17;;;1.80;;
14923;SDS011;7554;43.600;1.480;2023-01-13T09:59:03;3.57;;;1.80;;
14923;SDS011;7554;43.600;1.480;2023-01-13T10:01:32;2.23;;;1.67;;
14923;SDS011;7554;43.600;1.480;2023-01-13T10:04:08;4.27;;;1.50;;
14923;SDS011;7554;43.600;1.480;2023-01-13T10:06:37;2.50;;;1.50;;
14923;SDS011;7554;43.600;1.480;2023-01-13T10:09:09;3.27;;;1.20;;
14923;SDS011;7554;43.600;1.480;2023-01-13T10:11:44;4.40;;;1.60;;
14923;SDS011;7554;43.600;1.480;2023-01-13T10:14:33;3.03;;;1.43;;
14923;SDS011;7554;43.600;1.480;2023-01-13T10:17:05;2.93;;;1.80;;
14923;SDS011;7554;43.600;1.480;2023-01-13T10:19:42;3.93;;;1.20;;
14923;SDS011;7554;43.600;1.480;2023-01-13T10:22:16;3.93;;;1.40;;
14923;SDS011;7554;43.600;1.480;2023-01-13T10:25:03;2.33;;;1.30;;
14923;SDS011;7554;43.600;1.480;2023-01-13T10:27:44;5.23;;;1.33;;
14923;SDS011;7554;43.600;1.480;2023-01-13T10:30:18;2.43;;;1.17;;
14923;SDS011;7554;43.600;1.480;2023-01-13T10:32:48;3.00;;;1.13;;
14923;SDS011;7554;43.600;1.480;2023-01-13T10:38:14;2.13;;;1.00;;
14923;SDS011;7554;43.600;1.480;2023-01-13T10:40:48;2.03;;;1.10;;
14923;SDS011;7554;43.600;1.480;2023-01-13T10:43:18;2.03;;;1.10;;
14923;SDS011;7554;43.600;1.480;2023-01-13T10:45:55;2.30;;;0.97;;
14923;SDS011;7554;43.600;1.480;2023-01-13T10:48:35;3.90;;;1.10;;
14923;SDS011;7554;43.600;1.480;2023-01-13T10:51:14;3.37;;;1.23;;
14923;SDS011;7554;43.600;1.480;2023-01-13T10:53:48;3.53;;;1.73;;
14923;SDS011;7554;43.600;1.480;2023-01-13T10:56:23;6.93;;;1.60;;
14923;SDS011;7554;43.600;1.480;2023-01-13T10:58:54;3.10;;;1.73;;
14923;SDS011;7554;43.600;1.480;2023-01-13T11:01:38;4.53;;;1.80;;
14923;SDS011;7554;43.600;1.480;2023-01-13T11:04:16;5.20;;;1.57;;
14923;SDS011;7554;43.600;1.480;2023-01-13T11:06:55;2.00;;;0.90;;
14923;SDS011;7554;43.600;1.480;2023-01-13T11:09:23;4.00;;;1.20;;
14923;SDS011;7554;43.600;1.480;2023-01-13T11:11:54;4.40;;;1.23;;
14923;SDS011;7554;43.600;1.480;2023-01-13T11:14:24;2.70;;;1.00;;
14923;SDS011;7554;43.600;1.480;2023-01-13T11:17:07;4.40;;;0.87;;
14923;SDS011;7554;43.600;1.480;2023-01-13T11:19:45;4.90;;;1.10;;
14923;SDS011;7554;43.600;1.480;2023-01-13T11:22:18;6.70;;;1.37;;
14923;SDS011;7554;43.600;1.480;2023-01-13T11:24:51;5.50;;;1.07;;
14923;SDS011;7554;43.600;1.480;2023-01-13T11:27:22;5.70;;;1.13;;
14923;SDS011;7554;43.600;1.480;2023-01-13T11:29:58;4.53;;;1.17;;
14923;SDS011;7554;43.600;1.480;2023-01-13T11:32:34;5.43;;;1.20;;
14923;SDS011;7554;43.600;1.480;2023-01-13T11:35:12;3.13;;;1.03;;
14923;SDS011;7554;43.600;1.480;2023-01-13T11:37:43;4.50;;;0.97;;
14923;SDS011;7554;43.600;1.480;2023-01-13T11:40:20;3.13;;;1.03;;
14923;SDS011;7554;43.600;1.480;2023-01-13T11:42:57;2.13;;;0.83;;
14923;SDS011;7554;43.600;1.480;2023-01-13T11:45:29;2.57;;;1.00;;
14923;SDS011;7554;43.600;1.480;2023-01-13T11:48:02;2.63;;;1.20;;
14923;SDS011;7554;43.600;1.480;2023-01-13T11:50:32;1.83;;;0.90;;
14923;SDS011;7554;43.600;1.480;2023-01-13T11:53:15;5.13;;;1.10;;
14923;SDS011;7554;43.600;1.480;2023-01-13T11:55:57;2.13;;;0.80;;
14923;SDS011;7554;43.600;1.480;2023-01-13T11:58:51;2.93;;;1.00;;
14923;SDS011;7554;43.600;1.480;2023-01-13T12:01:34;2.83;;;1.00;;
14923;SDS011;7554;43.600;1.480;2023-01-13T12:04:19;2.67;;;1.00;;
14923;SDS011;7554;43.600;1.480;2023-01-13T12:06:51;2.50;;;0.93;;
14923;SDS011;7554;43.600;1.480;2023-01-13T12:09:39;1.67;;;0.70;;
14923;SDS011;7554;43.600;1.480;2023-01-13T12:12:19;1.80;;;0.77;;
14923;SDS011;7554;43.600;1.480;2023-01-13T12:21:15;4.10;;;0.80;;
14923;SDS011;7554;43.600;1.480;2023-01-13T12:23:46;2.13;;;1.03;;
14923;SDS011;7554;43.600;1.480;2023-01-13T12:26:30;1.60;;;0.83;;
14923;SDS011;7554;43.600;1.480;2023-01-13T12:29:02;1.57;;;1.00;;
14923;SDS011;7554;43.600;1.480;2023-01-13T12:31:33;3.50;;;0.97;;
14923;SDS011;7554;43.600;1.480;2023-01-13T12:34:08;4.07;;;0.83;;
14923;SDS011;7554;43.600;1.480;2023-01-13T12:36:55;3.50;;;1.50;;
14923;SDS011;7554;43.600;1.480;2023-01-13T12:39:29;3.87;;;1.33;;
14923;SDS011;7554;43.600;1.480;2023-01-13T12:42:07;5.83;;;1.50;;
14923;SDS011;7554;43.600;1.480;2023-01-13T12:47:51;2.27;;;0.73;;
14923;SDS011;7554;43.600;1.480;2023-01-13T12:50:36;2.30;;;0.80;;
14923;SDS011;7554;43.600;1.480;2023-01-13T13:08:16;3.63;;;0.80;;
14923;SDS011;7554;43.600;1.480;2023-01-13T13:14:08;4.80;;;1.10;;
14923;SDS011;7554;43.600;1.480;2023-01-13T13:16:44;2.37;;;1.30;;
14923;SDS011;7554;43.600;1.480;2023-01-13T13:25:23;2.67;;;1.40;;
14923;SDS011;7554;43.600;1.480;2023-01-13T13:34:00;6.63;;;2.43;;
14923;SDS011;7554;43.600;1.480;2023-01-13T13:36:40;5.47;;;1.00;;
14923;SDS011;7554;43.600;1.480;2023-01-13T13:39:25;7.20;;;1.40;;
14923;SDS011;7554;43.600;1.480;2023-01-13T13:42:15;5.53;;;1.10;;
14923;SDS011;7554;43.600;1.480;2023-01-13T13:45:03;1.67;;;0.90;;
14923;SDS011;7554;43.600;1.480;2023-01-13T13:47:58;4.07;;;1.03;;
14923;SDS011;7554;43.600;1.480;2023-01-13T13:50:27;3.73;;;1.10;;
14923;SDS011;7554;43.600;1.480;2023-01-13T13:53:00;3.57;;;0.93;;
14923;SDS011;7554;43.600;1.480;2023-01-13T13:55:31;2.20;;;0.80;;
14923;SDS011;7554;43.600;1.480;2023-01-13T13:57:58;2.90;;;0.70;;
14923;SDS011;7554;43.600;1.480;2023-01-13T14:00:27;2.97;;;0.80;;
14923;SDS011;7554;43.600;1.480;2023-01-13T14:02:57;4.20;;;1.30;;
14923;SDS011;7554;43.600;1.480;2023-01-13T14:05:26;2.17;;;1.30;;
14923;SDS011;7554;43.600;1.480;2023-01-13T14:07:58;4.77;;;1.10;;
14923;SDS011;7554;43.600;1.480;2023-01-13T14:10:28;1.33;;;0.60;;
14923;SDS011;7554;43.600;1.480;2023-01-13T14:12:59;3.63;;;0.83;;
14923;SDS011;7554;43.600;1.480;2023-01-13T14:15:32;3.13;;;0.70;;
14923;SDS011;7554;43.600;1.480;2023-01-13T14:18:01;5.63;;;1.23;;
14923;SDS011;7554;43.600;1.480;2023-01-13T14:20:31;3.53;;;0.90;;
14923;SDS011;7554;43.600;1.480;2023-01-13T14:23:01;3.47;;;0.83;;
14923;SDS011;7554;43.600;1.480;2023-01-13T14:25:32;2.83;;;0.97;;
14923;SDS011;7554;43.600;1.480;2023-01-13T14:28:19;3.17;;;0.80;;
14923;SDS011;7554;43.600;1.480;2023-01-13T14:30:49;4.83;;;1.20;;
14923;SDS011;7554;43.600;1.480;2023-01-13T14:33:19;2.93;;;1.03;;
14923;SDS011;7554;43.600;1.480;2023-01-13T14:41:53;3.93;;;1.47;;
14923;SDS011;7554;43.600;1.480;2023-01-13T14:44:22;3.23;;;1.20;;
14923;SDS011;7554;43.600;1.480;2023-01-13T14:46:53;4.23;;;1.40;;
14923;SDS011;7554;43.600;1.480;2023-01-13T14:49:23;2.60;;;1.00;;
14923;SDS011;7554;43.600;1.480;2023-01-13T14:52:02;5.67;;;1.10;;
14923;SDS011;7554;43.600;1.480;2023-01-13T14:54:43;4.33;;;1.13;;
14923;SDS011;7554;43.600;1.480;2023-01-13T14:57:23;3.70;;;1.03;;
14923;SDS011;7554;43.600;1.480;2023-01-13T14:59:59;4.27;;;1.33;;
14923;SDS011;7554;43.600;1.480;2023-01-13T15:02:40;6.17;;;1.73;;
14923;SDS011;7554;43.600;1.480;2023-01-13T15:05:28;3.77;;;1.07;;
14923;SDS011;7554;43.600;1.480;2023-01-13T15:08:16;4.50;;;1.10;;
14923;SDS011;7554;43.600;1.480;2023-01-13T15:10:53;4.40;;;0.90;;
14923;SDS011;7554;43.600;1.480;2023-01-13T15:13:28;5.27;;;1.50;;
14923;SDS011;7554;43.600;1.480;2023-01-13T15:16:00;2.37;;;0.77;;
14923;SDS011;7554;43.600;1.480;2023-01-13T15:18:31;4.47;;;1.10;;
14923;SDS011;7554;43.600;1.480;2023-01-13T15:21:04;3.20;;;0.90;;
14923;SDS011;7554;43.600;1.480;2023-01-13T15:23:32;3.83;;;1.27;;
14923;SDS011;7554;43.600;1.480;2023-01-13T15:25:59;6.33;;;1.47;;
14923;SDS011;7554;43.600;1.480;2023-01-13T15:28:28;4.77;;;1.47;;
14923;SDS011;7554;43.600;1.480;2023-01-13T15:30:57;5.00;;;1.27;;
14923;SDS011;7554;43.600;1.480;2023-01-13T15:33:27;7.60;;;1.50;;
14923;SDS011;7554;43.600;1.480;2023-01-13T15:35:55;7.00;;;1.50;;
14923;SDS011;7554;43.600;1.480;2023-01-13T15:38:23;7.07;;;1.17;;
14923;SDS011;7554;43.600;1.480;2023-01-13T15:40:50;5.83;;;1.37;;
14923;SDS011;7554;43.600;1.480;2023-01-13T15:43:19;6.77;;;1.23;;
14923;SDS011;7554;43.600;1.480;2023-01-13T15:46:13;3.63;;;1.40;;
14923;SDS011;7554;43.600;1.480;2023-01-13T15:48:59;4.23;;;1.70;;
14923;SDS011;7554;43.600;1.480;2023-01-13T15:51:33;6.30;;;1.50;;
14923;SDS011;7554;43.600;1.480;2023-01-13T15:54:00;5.13;;;1.37;;
14923;SDS011;7554;43.600;1.480;2023-01-13T15:56:27;6.10;;;1.63;;
14923;SDS011;7554;43.600;1.480;2023-01-13T15:58:55;5.83;;;1.70;;
14923;SDS011;7554;43.600;1.480;2023-01-13T16:01:24;5.50;;;1.50;;
14923;SDS011;7554;43.600;1.480;2023-01-13T16:03:51;4.70;;;1.50;;
14923;SDS011;7554;43.600;1.480;2023-01-13T16:06:19;4.20;;;1.30;;
14923;SDS011;7554;43.600;1.480;2023-01-13T16:08:51;6.17;;;1.80;;
14923;SDS011;7554;43.600;1.480;2023-01-13T16:11:19;6.50;;;1.93;;
14923;SDS011;7554;43.600;1.480;2023-01-13T16:13:46;6.43;;;1.30;;
14923;SDS011;7554;43.600;1.480;2023-01-13T16:16:16;5.67;;;1.37;;
14923;SDS011;7554;43.600;1.480;2023-01-13T16:18:47;5.63;;;1.30;;
14923;SDS011;7554;43.600;1.480;2023-01-13T16:21:15;6.37;;;1.17;;
14923;SDS011;7554;43.600;1.480;2023-01-13T16:23:43;8.03;;;1.70;;
14923;SDS011;7554;43.600;1.480;2023-01-13T16:26:16;3.90;;;1.50;;